North, Virginia
Current Conditions -  °F | °C
As of 3:35 PM on Saturday 20 Dec 2014 (Local Time) from KW75 Reporting Station
Overcast Overcast  
Wind Chill: 36°   Ceiling: 9000
Heat Index: 36°   Visibility: 10mi
Dew Point: 26°   Wind: 3mph
Humidity: 66%   Direction: 320°NW
Pressure: 30.27"   Gusts: NA
Location:  37.44°N, 76.41°W
Report Text: KW75 202035Z AUTO 32003KT 10SM BKN090 OVC120 02/M03 A3027 RMK AO1 T00231035
Loading
Personal Weather Stations






























Interactive Weather Map New forecast layout! Learn more

10-Day Weather Forecast

Advertisements
Track Severe Weather on mobile